createdAt,value
2022-10-30T00:00:36.289Z,12.39
2022-10-30T00:03:03.078Z,12.30
2022-10-30T00:05:29.621Z,12.19
2022-10-30T00:07:57.105Z,12.08
2022-10-30T00:10:24.151Z,12.02
2022-10-30T00:12:50.545Z,11.94
2022-10-30T00:15:17.193Z,11.86
2022-10-30T00:17:43.475Z,11.77
2022-10-30T00:20:09.932Z,11.70
2022-10-30T00:22:36.200Z,11.68
2022-10-30T00:25:03.109Z,11.60
2022-10-30T00:27:29.363Z,11.56
2022-10-30T00:29:55.606Z,11.49
2022-10-30T00:32:21.850Z,11.39
2022-10-30T00:34:48.094Z,11.28
2022-10-30T00:37:14.352Z,11.22
2022-10-30T00:39:40.630Z,11.13
2022-10-30T00:42:09.566Z,11.07
2022-10-30T00:44:36.152Z,11.00
2022-10-30T00:47:06.354Z,10.96
2022-10-30T00:49:35.349Z,10.94
2022-10-30T00:52:03.406Z,11.00
2022-10-30T00:54:29.793Z,11.01
2022-10-30T00:56:56.228Z,11.03
2022-10-30T00:59:23.999Z,11.02
2022-10-30T01:01:51.038Z,10.99
2022-10-30T01:04:17.718Z,10.97
2022-10-30T01:06:48.188Z,10.94
2022-10-30T01:09:15.128Z,10.88
2022-10-30T01:11:41.447Z,10.82
2022-10-30T01:14:09.433Z,10.76
2022-10-30T01:16:46.844Z,10.74
2022-10-30T01:19:22.341Z,10.74
2022-10-30T01:22:17.232Z,10.68
2022-10-30T01:24:49.306Z,10.65
2022-10-30T01:27:34.455Z,10.63
2022-10-30T01:30:08.383Z,10.66
2022-10-30T01:32:41.674Z,10.66
2022-10-30T01:35:07.927Z,10.72
2022-10-30T01:37:42.471Z,10.77
2022-10-30T01:40:09.768Z,10.81
2022-10-30T01:42:45.070Z,10.81
2022-10-30T01:45:18.214Z,10.79
2022-10-30T01:47:47.255Z,10.71
2022-10-30T01:50:33.040Z,10.63
2022-10-30T01:53:19.582Z,10.54
2022-10-30T01:55:50.137Z,10.55
2022-10-30T01:58:34.287Z,10.50
2022-10-30T02:01:00.632Z,10.48
2022-10-30T02:03:27.529Z,10.47
2022-10-30T02:05:54.369Z,10.47
2022-10-30T02:08:21.500Z,10.47
2022-10-30T02:10:48.967Z,10.44
2022-10-30T02:13:15.204Z,10.44
2022-10-30T02:15:42.015Z,10.48
2022-10-30T02:18:09.331Z,10.53
2022-10-30T02:20:35.624Z,10.52
2022-10-30T02:23:02.432Z,10.57
2022-10-30T02:25:29.167Z,10.59
2022-10-30T02:27:55.400Z,10.63
2022-10-30T02:30:21.651Z,10.57
2022-10-30T02:32:48.012Z,10.55
2022-10-30T02:35:14.284Z,10.52
2022-10-30T02:37:40.536Z,10.50
2022-10-30T02:40:10.038Z,10.58
2022-10-30T02:42:36.600Z,10.53
2022-10-30T02:45:03.140Z,10.57
2022-10-30T02:47:29.367Z,10.58
2022-10-30T02:49:55.600Z,10.61
2022-10-30T02:52:21.841Z,10.58
2022-10-30T02:54:48.089Z,10.58
2022-10-30T02:57:14.341Z,10.56
2022-10-30T02:59:40.586Z,10.52
2022-10-30T03:02:06.894Z,10.49
2022-10-30T03:04:33.217Z,10.46
2022-10-30T03:06:59.477Z,10.44
2022-10-30T03:09:25.758Z,10.40
2022-10-30T03:11:52.024Z,10.43
2022-10-30T03:14:18.288Z,10.49
2022-10-30T03:16:44.565Z,10.45
2022-10-30T03:19:10.940Z,10.41
2022-10-30T03:21:37.248Z,10.43
2022-10-30T03:24:03.732Z,10.41
2022-10-30T03:26:29.978Z,10.38
2022-10-30T03:28:56.292Z,10.34
2022-10-30T03:31:22.589Z,10.27
2022-10-30T03:33:48.873Z,10.26
2022-10-30T03:36:15.620Z,10.23
2022-10-30T03:38:42.340Z,10.21
2022-10-30T03:41:08.783Z,10.21
2022-10-30T03:43:35.026Z,10.19
2022-10-30T03:46:01.574Z,10.17
2022-10-30T03:48:28.612Z,10.22
2022-10-30T03:50:55.561Z,10.21
2022-10-30T03:53:23.866Z,10.20
2022-10-30T03:55:50.324Z,10.19
2022-10-30T03:58:16.575Z,10.21
2022-10-30T04:00:42.832Z,10.20
2022-10-30T04:03:09.490Z,10.13
2022-10-30T04:05:36.427Z,10.15
2022-10-30T04:08:05.252Z,10.13
2022-10-30T04:10:31.543Z,10.16
2022-10-30T04:13:01.877Z,10.09
2022-10-30T04:15:28.380Z,10.11
2022-10-30T04:17:55.226Z,10.15
2022-10-30T04:20:22.531Z,10.11
2022-10-30T04:22:48.905Z,10.13
2022-10-30T04:25:15.256Z,10.14
2022-10-30T04:27:42.284Z,10.20
2022-10-30T04:30:09.593Z,10.22
2022-10-30T04:32:36.044Z,10.16
2022-10-30T04:35:03.674Z,10.10
2022-10-30T04:37:30.545Z,10.06
2022-10-30T04:39:56.784Z,10.06
2022-10-30T04:42:23.082Z,10.07
2022-10-30T04:44:49.335Z,10.18
2022-10-30T04:47:17.278Z,10.26
2022-10-30T04:49:43.539Z,10.34
2022-10-30T04:52:09.789Z,10.38
2022-10-30T04:54:36.028Z,10.46
2022-10-30T04:57:02.359Z,10.64
2022-10-30T04:59:28.625Z,10.77
2022-10-30T05:01:55.004Z,10.85
2022-10-30T05:04:21.366Z,10.90
2022-10-30T05:06:47.602Z,10.93
2022-10-30T05:09:13.844Z,10.92
2022-10-30T05:11:40.089Z,10.94
2022-10-30T05:14:06.507Z,10.93
2022-10-30T05:16:32.785Z,10.97
2022-10-30T05:18:59.149Z,10.97
2022-10-30T05:21:25.436Z,11.03
2022-10-30T05:23:51.691Z,11.07
2022-10-30T05:26:17.951Z,11.08
2022-10-30T05:28:44.218Z,11.09
2022-10-30T05:31:10.521Z,11.11
2022-10-30T05:33:36.767Z,11.15
2022-10-30T05:36:03.136Z,11.19
2022-10-30T05:38:29.402Z,11.20
2022-10-30T05:40:55.661Z,11.23
2022-10-30T05:43:21.929Z,11.23
2022-10-30T05:45:51.194Z,11.23
2022-10-30T05:48:17.461Z,11.22
2022-10-30T05:50:44.153Z,11.23
2022-10-30T05:53:10.563Z,11.22
2022-10-30T05:55:36.803Z,11.22
2022-10-30T05:58:04.478Z,11.20
2022-10-30T06:00:31.714Z,11.20
2022-10-30T06:03:02.107Z,11.16
2022-10-30T06:05:32.613Z,11.14
2022-10-30T06:07:59.193Z,11.11
2022-10-30T06:10:25.887Z,11.08
2022-10-30T06:12:56.171Z,11.04
2022-10-30T06:15:23.338Z,11.02
2022-10-30T06:17:49.683Z,11.00
2022-10-30T06:20:16.347Z,10.96
2022-10-30T06:22:42.668Z,10.92
2022-10-30T06:25:09.029Z,10.89
2022-10-30T06:27:35.439Z,10.85
2022-10-30T06:30:01.695Z,10.85
2022-10-30T06:32:27.943Z,10.85
2022-10-30T06:34:54.235Z,10.83
2022-10-30T06:37:20.519Z,10.81
2022-10-30T06:39:46.826Z,10.81
2022-10-30T06:42:13.174Z,10.78
2022-10-30T06:44:39.517Z,10.80
2022-10-30T06:47:05.837Z,10.78
2022-10-30T06:49:32.174Z,10.78
2022-10-30T06:51:58.690Z,10.77
2022-10-30T06:54:24.921Z,10.75
2022-10-30T06:56:51.662Z,10.75
2022-10-30T06:59:18.052Z,10.73
2022-10-30T07:01:44.392Z,10.72
2022-10-30T07:04:10.757Z,10.70
2022-10-30T07:06:37.003Z,10.70
2022-10-30T07:09:03.385Z,10.71
2022-10-30T07:11:29.677Z,10.70
2022-10-30T07:13:55.937Z,10.72
2022-10-30T07:16:22.194Z,10.73
2022-10-30T07:18:48.436Z,10.75
2022-10-30T07:21:14.723Z,10.76
2022-10-30T07:23:41.002Z,10.77
2022-10-30T07:26:07.666Z,10.79
2022-10-30T07:28:33.944Z,10.79
2022-10-30T07:31:00.238Z,10.79
2022-10-30T07:33:27.121Z,10.82
2022-10-30T07:35:55.883Z,10.82
2022-10-30T07:38:22.343Z,10.85
2022-10-30T07:40:52.328Z,10.86
2022-10-30T07:43:18.599Z,10.87
2022-10-30T07:45:45.237Z,10.86
2022-10-30T07:48:11.481Z,10.87
2022-10-30T07:50:37.854Z,10.85
2022-10-30T07:53:04.213Z,10.85
2022-10-30T07:55:30.523Z,10.86
2022-10-30T07:57:57.373Z,10.90
2022-10-30T08:00:23.903Z,10.96
2022-10-30T08:02:56.445Z,11.04
2022-10-30T08:05:27.129Z,11.14
2022-10-30T08:07:56.826Z,11.24
2022-10-30T08:10:23.329Z,11.36
2022-10-30T08:12:49.683Z,11.56
2022-10-30T08:15:15.919Z,11.77
2022-10-30T08:17:46.312Z,11.93
2022-10-30T08:20:13.585Z,12.16
2022-10-30T08:22:47.133Z,12.29
2022-10-30T08:25:13.510Z,12.41
2022-10-30T08:27:39.869Z,12.53
2022-10-30T08:30:06.401Z,12.64
2022-10-30T08:32:32.798Z,12.73
2022-10-30T08:34:59.163Z,12.83
2022-10-30T08:37:25.421Z,12.90
2022-10-30T08:39:51.662Z,12.94
2022-10-30T08:42:17.925Z,12.94
2022-10-30T08:44:44.166Z,12.92
2022-10-30T08:47:10.405Z,12.90
2022-10-30T08:49:36.645Z,12.90
2022-10-30T08:52:02.939Z,12.92
2022-10-30T08:54:29.197Z,12.95
2022-10-30T08:56:55.436Z,12.99
2022-10-30T08:59:21.687Z,13.02
2022-10-30T09:01:50.124Z,13.07
2022-10-30T09:04:16.547Z,13.12
2022-10-30T09:06:42.818Z,13.16
2022-10-30T09:09:09.110Z,13.20
2022-10-30T09:11:35.387Z,13.25
2022-10-30T09:14:01.678Z,13.36
2022-10-30T09:16:28.033Z,13.50
2022-10-30T09:18:54.289Z,13.59
2022-10-30T09:21:20.544Z,13.63
2022-10-30T09:23:46.979Z,13.64
2022-10-30T09:26:16.915Z,13.62
2022-10-30T09:28:46.170Z,13.67
2022-10-30T09:31:12.444Z,13.74
2022-10-30T09:33:38.741Z,13.79
2022-10-30T09:36:05.207Z,13.87
2022-10-30T09:38:34.789Z,13.96
2022-10-30T09:41:12.085Z,14.06
2022-10-30T09:43:47.298Z,14.13
2022-10-30T09:46:23.295Z,14.25
2022-10-30T09:49:01.728Z,14.38
2022-10-30T09:51:44.156Z,14.48
2022-10-30T09:54:30.159Z,14.64
2022-10-30T09:57:02.528Z,14.77
2022-10-30T09:59:38.185Z,14.88
2022-10-30T10:02:15.301Z,14.98
2022-10-30T10:04:43.449Z,15.08
2022-10-30T10:07:30.144Z,15.15
2022-10-30T10:10:07.606Z,15.24
2022-10-30T10:12:43.454Z,15.33
2022-10-30T10:15:14.299Z,15.41
2022-10-30T10:17:43.474Z,15.45
2022-10-30T10:20:17.974Z,15.53
2022-10-30T10:22:44.229Z,15.63
2022-10-30T10:25:12.955Z,15.74
2022-10-30T10:27:57.931Z,15.81
2022-10-30T10:30:24.729Z,15.91
2022-10-30T10:33:07.601Z,15.95
2022-10-30T10:35:42.699Z,16.02
2022-10-30T10:38:28.384Z,16.10
2022-10-30T10:41:13.272Z,16.21
2022-10-30T10:43:54.823Z,16.32
2022-10-30T10:46:24.071Z,16.39
2022-10-30T10:48:53.437Z,16.48
2022-10-30T10:51:27.199Z,16.58
2022-10-30T10:53:53.447Z,16.81
2022-10-30T10:56:21.813Z,17.14
2022-10-30T10:58:48.048Z,17.90
2022-10-30T11:01:17.537Z,18.65
2022-10-30T11:03:57.374Z,19.33
2022-10-30T11:06:23.710Z,19.98
2022-10-30T11:08:52.423Z,20.21
2022-10-30T11:11:18.698Z,20.65
2022-10-30T11:13:47.744Z,20.74
2022-10-30T11:16:21.510Z,21.00
2022-10-30T11:18:50.992Z,21.28
2022-10-30T11:21:18.787Z,21.13
2022-10-30T11:23:46.417Z,21.00
2022-10-30T11:26:15.677Z,20.96
2022-10-30T11:28:45.953Z,20.62
2022-10-30T11:31:20.369Z,20.34
2022-10-30T11:33:46.903Z,20.58
2022-10-30T11:36:16.726Z,20.76
2022-10-30T11:38:42.974Z,21.00
2022-10-30T11:41:12.601Z,20.82
2022-10-30T11:43:40.049Z,20.83
2022-10-30T11:46:09.516Z,21.04
2022-10-30T11:48:37.790Z,21.17
2022-10-30T11:51:04.184Z,21.18
2022-10-30T11:53:36.524Z,21.12
2022-10-30T11:56:04.230Z,21.03
2022-10-30T11:58:38.412Z,21.14
2022-10-30T12:01:10.466Z,21.44
2022-10-30T12:03:38.311Z,21.41
2022-10-30T12:06:09.329Z,21.46
2022-10-30T12:08:35.673Z,21.54
2022-10-30T12:11:03.901Z,21.44
2022-10-30T12:13:36.406Z,21.37
2022-10-30T12:16:07.844Z,21.30
2022-10-30T12:18:34.486Z,21.34
2022-10-30T12:21:02.033Z,21.36
2022-10-30T12:23:29.012Z,21.53
2022-10-30T12:26:00.334Z,21.42
2022-10-30T12:28:28.142Z,21.65
2022-10-30T12:30:57.166Z,21.68
2022-10-30T12:33:35.115Z,21.93
2022-10-30T12:36:04.915Z,22.10
2022-10-30T12:38:40.182Z,22.20
2022-10-30T12:41:23.663Z,22.38
2022-10-30T12:43:58.876Z,22.57
2022-10-30T12:46:31.058Z,22.58
2022-10-30T12:49:09.382Z,22.58
2022-10-30T12:51:38.975Z,22.63
2022-10-30T12:54:09.684Z,22.43
2022-10-30T12:56:38.241Z,22.59
2022-10-30T12:59:04.510Z,22.53
2022-10-30T13:01:35.305Z,22.26
2022-10-30T13:04:20.453Z,22.09
2022-10-30T13:06:54.214Z,22.03
2022-10-30T13:09:23.816Z,21.88
2022-10-30T13:12:09.254Z,21.48
2022-10-30T13:14:42.071Z,21.10
2022-10-30T13:17:12.327Z,20.86
2022-10-30T13:19:42.504Z,20.64
2022-10-30T13:22:15.579Z,20.27
2022-10-30T13:24:47.898Z,19.90
2022-10-30T13:27:20.233Z,19.61
2022-10-30T13:29:52.483Z,19.27
2022-10-30T13:32:18.896Z,19.01
2022-10-30T13:34:48.344Z,18.82
2022-10-30T13:37:20.501Z,18.66
2022-10-30T13:40:01.157Z,18.58
2022-10-30T13:42:27.400Z,18.56
2022-10-30T13:45:01.706Z,18.53
2022-10-30T13:47:42.718Z,18.50
2022-10-30T13:50:15.399Z,18.45
2022-10-30T13:52:43.440Z,18.39
2022-10-30T13:55:30.029Z,18.36
2022-10-30T13:58:14.721Z,18.31
2022-10-30T14:00:54.451Z,18.23
2022-10-30T14:03:39.705Z,18.16
2022-10-30T14:06:08.997Z,18.07
2022-10-30T14:08:39.503Z,18.00
2022-10-30T14:11:07.013Z,17.95
2022-10-30T14:13:36.253Z,17.82
2022-10-30T14:16:05.150Z,17.74
2022-10-30T14:18:42.450Z,17.67
2022-10-30T14:21:27.212Z,17.58
2022-10-30T14:24:01.540Z,17.54
2022-10-30T14:26:27.826Z,17.52
2022-10-30T14:28:55.042Z,17.50
2022-10-30T14:31:33.705Z,17.50
2022-10-30T14:34:00.536Z,17.48
2022-10-30T14:36:46.855Z,17.46
2022-10-30T14:39:13.108Z,17.40
2022-10-30T14:41:39.342Z,17.34
2022-10-30T14:44:12.008Z,17.30
2022-10-30T14:46:44.659Z,17.23
2022-10-30T14:49:36.473Z,17.16
2022-10-30T14:52:15.375Z,17.06
2022-10-30T14:54:47.775Z,16.93
2022-10-30T14:57:20.990Z,16.79
2022-10-30T14:59:47.247Z,16.60
2022-10-30T15:02:13.708Z,16.45
2022-10-30T15:04:49.407Z,16.38
2022-10-30T15:07:35.417Z,16.31
2022-10-30T15:10:04.647Z,16.24
2022-10-30T15:12:58.173Z,16.19
2022-10-30T15:15:27.672Z,16.15
2022-10-30T15:17:55.639Z,16.04
2022-10-30T15:20:26.967Z,15.88
2022-10-30T15:22:56.107Z,15.71
2022-10-30T15:25:24.365Z,15.53
2022-10-30T15:27:53.361Z,15.32
2022-10-30T15:30:21.117Z,15.16
2022-10-30T15:32:47.499Z,15.06
2022-10-30T15:35:18.515Z,15.02
2022-10-30T15:38:07.132Z,14.89
2022-10-30T15:40:35.015Z,14.80
2022-10-30T15:43:03.086Z,14.68
2022-10-30T15:45:37.262Z,14.52
2022-10-30T15:48:15.836Z,14.40
2022-10-30T15:50:44.934Z,14.32
2022-10-30T15:53:34.277Z,14.25
2022-10-30T15:56:00.623Z,14.19
2022-10-30T15:58:27.290Z,14.05
2022-10-30T16:00:57.843Z,13.97
2022-10-30T16:03:24.516Z,13.90
2022-10-30T16:05:51.227Z,13.77
2022-10-30T16:08:22.089Z,13.72
2022-10-30T16:10:48.931Z,13.74
2022-10-30T16:13:31.091Z,13.70
2022-10-30T16:15:57.378Z,13.52
2022-10-30T16:18:25.589Z,13.42
2022-10-30T16:20:53.798Z,13.42
2022-10-30T16:23:20.538Z,13.48
2022-10-30T16:25:47.708Z,13.47
2022-10-30T16:28:29.195Z,13.41
2022-10-30T16:30:57.553Z,13.39
2022-10-30T16:33:26.179Z,13.42
2022-10-30T16:35:55.610Z,13.39
2022-10-30T16:38:22.950Z,13.35
2022-10-30T16:40:49.359Z,13.29
2022-10-30T16:43:24.645Z,13.23
2022-10-30T16:45:51.508Z,13.14
2022-10-30T16:48:27.201Z,13.05
2022-10-30T16:50:59.259Z,12.93
2022-10-30T16:53:25.803Z,12.80
2022-10-30T16:55:52.789Z,12.63
2022-10-30T16:58:19.389Z,12.56
2022-10-30T17:00:50.364Z,12.51
2022-10-30T17:03:19.539Z,12.47
2022-10-30T17:05:55.994Z,12.46
2022-10-30T17:08:22.218Z,12.47
2022-10-30T17:10:48.443Z,12.45
2022-10-30T17:13:33.415Z,12.44
2022-10-30T17:16:11.396Z,12.32
2022-10-30T17:18:37.681Z,12.24
2022-10-30T17:21:09.250Z,12.19
2022-10-30T17:23:35.847Z,12.17
2022-10-30T17:26:09.426Z,12.08
2022-10-30T17:28:36.698Z,12.09
2022-10-30T17:31:18.205Z,12.07
2022-10-30T17:33:45.165Z,12.02
2022-10-30T17:36:11.626Z,12.00
2022-10-30T17:38:38.178Z,11.98
2022-10-30T17:41:05.113Z,11.94
2022-10-30T17:43:33.281Z,11.88
2022-10-30T17:45:59.612Z,11.88
2022-10-30T17:48:26.896Z,11.96
2022-10-30T17:50:53.129Z,11.91
2022-10-30T17:53:21.693Z,11.87
2022-10-30T17:55:51.730Z,11.79
2022-10-30T17:58:20.654Z,11.74
2022-10-30T18:00:47.034Z,11.64
2022-10-30T18:03:13.334Z,11.61
2022-10-30T18:05:40.775Z,11.57
2022-10-30T18:08:07.043Z,11.61
2022-10-30T18:10:33.311Z,11.69
2022-10-30T18:12:59.893Z,11.66
2022-10-30T18:15:26.206Z,11.64
2022-10-30T18:17:52.535Z,11.53
2022-10-30T18:20:18.805Z,11.49
2022-10-30T18:22:45.092Z,11.43
2022-10-30T18:25:16.568Z,11.38
2022-10-30T18:27:45.093Z,11.36
2022-10-30T18:30:12.799Z,11.34
2022-10-30T18:32:39.046Z,11.33
2022-10-30T18:35:12.895Z,11.35
2022-10-30T18:37:39.166Z,11.33
2022-10-30T18:40:05.756Z,11.30
2022-10-30T18:42:32.043Z,11.27
2022-10-30T18:44:58.321Z,11.28
2022-10-30T18:47:24.583Z,11.27
2022-10-30T18:49:50.833Z,11.22
2022-10-30T18:52:17.086Z,11.20
2022-10-30T18:54:43.359Z,11.21
2022-10-30T18:57:09.671Z,11.26
2022-10-30T18:59:35.981Z,11.31
2022-10-30T19:02:02.415Z,11.29
2022-10-30T19:04:28.882Z,11.22
2022-10-30T19:06:55.133Z,11.12
2022-10-30T19:09:21.364Z,11.02
2022-10-30T19:11:47.617Z,10.95
2022-10-30T19:14:15.233Z,10.88
2022-10-30T19:16:41.646Z,10.82
2022-10-30T19:19:07.898Z,10.91
2022-10-30T19:21:35.311Z,10.97
2022-10-30T19:24:02.309Z,11.00
2022-10-30T19:26:28.567Z,10.93
2022-10-30T19:28:54.842Z,10.85
2022-10-30T19:31:21.165Z,10.76
2022-10-30T19:33:51.386Z,10.76
2022-10-30T19:36:29.841Z,10.77
2022-10-30T19:38:56.254Z,10.76
2022-10-30T19:41:24.591Z,10.79
2022-10-30T19:43:51.174Z,10.83
2022-10-30T19:46:17.576Z,10.83
2022-10-30T19:49:00.187Z,10.85
2022-10-30T19:51:27.267Z,10.76
2022-10-30T19:53:53.751Z,10.67
2022-10-30T19:56:20.424Z,10.57
2022-10-30T19:58:46.699Z,10.53
2022-10-30T20:01:13.640Z,10.54
2022-10-30T20:03:39.920Z,10.56
2022-10-30T20:06:06.345Z,10.51
2022-10-30T20:08:32.606Z,10.50
2022-10-30T20:11:02.193Z,10.53
2022-10-30T20:13:29.055Z,10.62
2022-10-30T20:15:56.233Z,10.65
2022-10-30T20:18:30.567Z,10.69
2022-10-30T20:21:01.213Z,10.66
2022-10-30T20:23:27.867Z,10.55
2022-10-30T20:25:58.058Z,10.44
2022-10-30T20:28:24.269Z,10.38
2022-10-30T20:30:50.877Z,10.40
2022-10-30T20:33:19.099Z,10.37
2022-10-30T20:35:46.126Z,10.27
2022-10-30T20:38:16.783Z,10.33
2022-10-30T20:40:43.299Z,10.30
2022-10-30T20:43:11.887Z,10.33
2022-10-30T20:45:38.137Z,10.37
2022-10-30T20:48:04.417Z,10.42
2022-10-30T20:50:30.681Z,10.46
2022-10-30T20:52:57.007Z,10.49
2022-10-30T20:55:23.315Z,10.48
2022-10-30T20:57:49.626Z,10.45
2022-10-30T21:00:15.959Z,10.45
2022-10-30T21:02:42.422Z,10.36
2022-10-30T21:05:23.652Z,10.30
2022-10-30T21:07:58.140Z,10.31
2022-10-30T21:10:30.202Z,10.25
2022-10-30T21:12:58.818Z,10.18
2022-10-30T21:15:27.346Z,10.11
2022-10-30T21:17:53.588Z,9.99
2022-10-30T21:20:19.989Z,9.95
2022-10-30T21:22:46.413Z,9.93
2022-10-30T21:25:12.696Z,9.95
2022-10-30T21:27:39.144Z,9.95
2022-10-30T21:30:06.162Z,9.89
2022-10-30T21:32:32.430Z,9.81
2022-10-30T21:34:58.686Z,9.73
2022-10-30T21:37:25.455Z,9.64
2022-10-30T21:39:51.788Z,9.68
2022-10-30T21:42:18.284Z,9.71
2022-10-30T21:44:44.792Z,9.70
2022-10-30T21:47:11.130Z,9.68
2022-10-30T21:49:37.456Z,9.65
2022-10-30T21:52:07.079Z,9.58
2022-10-30T21:54:34.522Z,9.54
2022-10-30T21:57:00.925Z,9.53
2022-10-30T21:59:28.062Z,9.55
2022-10-30T22:01:54.563Z,9.53
2022-10-30T22:04:21.044Z,9.51
2022-10-30T22:06:47.327Z,9.46
2022-10-30T22:09:18.051Z,9.46
2022-10-30T22:11:44.658Z,9.47
2022-10-30T22:14:11.226Z,9.45
2022-10-30T22:16:38.537Z,9.46
2022-10-30T22:19:06.053Z,9.43
2022-10-30T22:21:32.970Z,9.40
2022-10-30T22:24:00.283Z,9.32
2022-10-30T22:26:26.589Z,9.30
2022-10-30T22:28:54.407Z,9.27
2022-10-30T22:31:21.467Z,9.25
2022-10-30T22:33:48.098Z,9.25
2022-10-30T22:36:22.097Z,9.29
2022-10-30T22:38:49.191Z,9.31
2022-10-30T22:41:16.883Z,9.31
2022-10-30T22:43:44.082Z,9.35
2022-10-30T22:46:10.716Z,9.33
2022-10-30T22:48:37.557Z,9.30
2022-10-30T22:51:04.661Z,9.26
2022-10-30T22:53:31.134Z,9.23
2022-10-30T22:55:57.392Z,9.19
2022-10-30T22:58:26.904Z,9.13
2022-10-30T23:00:53.161Z,9.09
2022-10-30T23:03:19.517Z,9.05
2022-10-30T23:05:45.784Z,9.00
2022-10-30T23:08:12.098Z,8.96
2022-10-30T23:10:38.340Z,8.89
2022-10-30T23:13:04.822Z,8.85
2022-10-30T23:15:31.078Z,8.83
2022-10-30T23:17:57.470Z,8.85
2022-10-30T23:20:23.917Z,8.81
2022-10-30T23:22:50.170Z,8.80
2022-10-30T23:25:16.453Z,8.80
2022-10-30T23:27:42.692Z,8.79
2022-10-30T23:30:09.363Z,8.80
2022-10-30T23:32:35.615Z,8.82
2022-10-30T23:35:01.861Z,8.83
2022-10-30T23:37:28.093Z,8.82
2022-10-30T23:39:54.455Z,8.81
2022-10-30T23:42:20.725Z,8.79
2022-10-30T23:44:47.006Z,8.80
2022-10-30T23:47:13.278Z,8.80
2022-10-30T23:49:39.525Z,8.81
2022-10-30T23:52:05.791Z,8.83
2022-10-30T23:54:32.045Z,8.86
2022-10-30T23:56:58.286Z,8.86
2022-10-30T23:59:24.635Z,8.86
